MAS1326 WMKK-WMKN
Flight info
| Callsign | MAS1326 |
|---|---|
| Flight time | 0h 37m |
| Altitude | 25000 |
| Route | PIBOS1D PIBOS R208 GUNBO GUNBO1E |
| Aircraft | B738/M-SDE2E3FGHIRWXY/LB1 |
Departure
| Time | 2026-04-25 03:29 |
|---|---|
| Airport | Kuala Lumpur International Airport (WMKK) |
Arrival
| Time | 2026-04-25 04:06 |
|---|---|
| Airport | Sultan Mahmud Airport (WMKN) |
| Time | Latitude | Longitude | Altitude | Speed | Heading |
|---|---|---|---|---|---|
| 2026-04-25 03:13 | 2.75461 | 101.70726 | 44 ft | 0 kts | 146° |
| 2026-04-25 03:17 | 2.75464 | 101.70724 | 72 ft | 3 kts | 145° |
| 2026-04-25 03:18 | 2.75483 | 101.70707 | 62 ft | 4 kts | 114° |
| 2026-04-25 03:18 | 2.75485 | 101.70683 | 62 ft | 4 kts | 63° |
| 2026-04-25 03:18 | 2.75482 | 101.70677 | 62 ft | 0 kts | 56° |
| 2026-04-25 03:22 | 2.75502 | 101.70707 | 67 ft | 12 kts | 56° |
| 2026-04-25 03:22 | 2.75561 | 101.70794 | 68 ft | 16 kts | 56° |
| 2026-04-25 03:23 | 2.75620 | 101.70884 | 72 ft | 15 kts | 56° |
| 2026-04-25 03:23 | 2.75677 | 101.70969 | 65 ft | 14 kts | 56° |
| 2026-04-25 03:23 | 2.75705 | 101.71059 | 72 ft | 14 kts | 111° |
| 2026-04-25 03:23 | 2.75634 | 101.71117 | 69 ft | 13 kts | 147° |
| 2026-04-25 03:24 | 2.75562 | 101.71172 | 72 ft | 13 kts | 123° |
| 2026-04-25 03:24 | 2.75572 | 101.71253 | 67 ft | 12 kts | 57° |
| 2026-04-25 03:24 | 2.75601 | 101.71331 | 66 ft | 12 kts | 101° |
| 2026-04-25 03:24 | 2.75543 | 101.71390 | 68 ft | 12 kts | 145° |
| 2026-04-25 03:25 | 2.75475 | 101.71436 | 69 ft | 12 kts | 146° |
| 2026-04-25 03:25 | 2.75408 | 101.71481 | 71 ft | 11 kts | 146° |
| 2026-04-25 03:25 | 2.75343 | 101.71525 | 63 ft | 11 kts | 146° |
| 2026-04-25 03:25 | 2.75281 | 101.71567 | 70 ft | 11 kts | 146° |
| 2026-04-25 03:26 | 2.75220 | 101.71608 | 71 ft | 10 kts | 146° |
| 2026-04-25 03:26 | 2.75161 | 101.71649 | 62 ft | 10 kts | 146° |
| 2026-04-25 03:26 | 2.75103 | 101.71687 | 70 ft | 10 kts | 147° |
| 2026-04-25 03:26 | 2.75046 | 101.71723 | 72 ft | 10 kts | 146° |
| 2026-04-25 03:27 | 2.74992 | 101.71760 | 70 ft | 9 kts | 146° |
| 2026-04-25 03:27 | 2.74942 | 101.71800 | 70 ft | 9 kts | 119° |
| 2026-04-25 03:27 | 2.74956 | 101.71858 | 71 ft | 9 kts | 57° |
| 2026-04-25 03:27 | 2.74996 | 101.71916 | 71 ft | 11 kts | 55° |
| 2026-04-25 03:28 | 2.75017 | 101.71946 | 68 ft | 4 kts | 56° |
| 2026-04-25 03:28 | 2.75018 | 101.71949 | 69 ft | 0 kts | 56° |
| 2026-04-25 03:28 | 2.75028 | 101.71962 | 72 ft | 8 kts | 56° |
| 2026-04-25 03:28 | 2.75106 | 101.72016 | 76 ft | 21 kts | 355° |
| 2026-04-25 03:29 | 2.75270 | 101.71912 | 70 ft | 42 kts | 324° |
| 2026-04-25 03:29 | 2.75741 | 101.71601 | 73 ft | 118 kts | 326° |
| 2026-04-25 03:29 | 2.76600 | 101.71024 | 195 ft | 169 kts | 327° |
| 2026-04-25 03:29 | 2.77264 | 101.70612 | 703 ft | 169 kts | 328° |
| 2026-04-25 03:30 | 2.78239 | 101.70014 | 1625 ft | 164 kts | 331° |
| 2026-04-25 03:30 | 2.79234 | 101.69355 | 2247 ft | 184 kts | 329° |
| 2026-04-25 03:30 | 2.80466 | 101.68697 | 2558 ft | 216 kts | 343° |
| 2026-04-25 03:30 | 2.81980 | 101.68216 | 2817 ft | 239 kts | 343° |
| 2026-04-25 03:31 | 2.83581 | 101.67641 | 3359 ft | 249 kts | 341° |
| 2026-04-25 03:31 | 2.85230 | 101.67038 | 3970 ft | 258 kts | 341° |
| 2026-04-25 03:31 | 2.86983 | 101.66402 | 4437 ft | 275 kts | 341° |
| 2026-04-25 03:31 | 2.88805 | 101.65741 | 5290 ft | 279 kts | 341° |
| 2026-04-25 03:32 | 2.90658 | 101.65166 | 6279 ft | 279 kts | 354° |
| 2026-04-25 03:32 | 2.92554 | 101.65426 | 7091 ft | 279 kts | 28° |
| 2026-04-25 03:32 | 2.94221 | 101.66427 | 7943 ft | 282 kts | 33° |
| 2026-04-25 03:32 | 2.95930 | 101.67432 | 8742 ft | 288 kts | 32° |
| 2026-04-25 03:33 | 2.97678 | 101.68444 | 9588 ft | 293 kts | 32° |
| 2026-04-25 03:33 | 2.99454 | 101.69473 | 10351 ft | 299 kts | 32° |
| 2026-04-25 03:33 | 3.01302 | 101.70547 | 10629 ft | 322 kts | 32° |
| 2026-04-25 03:33 | 3.03275 | 101.71694 | 11186 ft | 332 kts | 32° |
| 2026-04-25 03:34 | 3.05286 | 101.72861 | 11929 ft | 336 kts | 32° |
| 2026-04-25 03:34 | 3.07316 | 101.74039 | 12715 ft | 338 kts | 32° |
| 2026-04-25 03:34 | 3.09363 | 101.75227 | 13477 ft | 342 kts | 32° |
| 2026-04-25 03:34 | 3.11434 | 101.76430 | 14141 ft | 346 kts | 32° |
| 2026-04-25 03:35 | 3.13523 | 101.77644 | 14804 ft | 349 kts | 32° |
| 2026-04-25 03:35 | 3.15633 | 101.78871 | 15465 ft | 352 kts | 33° |
| 2026-04-25 03:35 | 3.17552 | 101.80386 | 16045 ft | 353 kts | 53° |
| 2026-04-25 03:35 | 3.18872 | 101.82443 | 16768 ft | 352 kts | 60° |
| 2026-04-25 03:36 | 3.20219 | 101.84509 | 17378 ft | 357 kts | 57° |
| 2026-04-25 03:36 | 3.21625 | 101.86567 | 18001 ft | 360 kts | 57° |
| 2026-04-25 03:36 | 3.23050 | 101.88646 | 18536 ft | 364 kts | 57° |
| 2026-04-25 03:36 | 3.24483 | 101.90749 | 19076 ft | 367 kts | 57° |
| 2026-04-25 03:37 | 3.25920 | 101.92868 | 19600 ft | 370 kts | 57° |
| 2026-04-25 03:37 | 3.27382 | 101.95009 | 20111 ft | 374 kts | 56° |
| 2026-04-25 03:37 | 3.28938 | 101.97105 | 20663 ft | 377 kts | 54° |
| 2026-04-25 03:37 | 3.30537 | 101.99195 | 21290 ft | 377 kts | 54° |
| 2026-04-25 03:38 | 3.32116 | 102.01278 | 21985 ft | 374 kts | 54° |
| 2026-04-25 03:38 | 3.33658 | 102.03330 | 22655 ft | 373 kts | 54° |
| 2026-04-25 03:38 | 3.35282 | 102.05354 | 23271 ft | 375 kts | 45° |
| 2026-04-25 03:38 | 3.37436 | 102.06829 | 23847 ft | 376 kts | 29° |
| 2026-04-25 03:39 | 3.39767 | 102.08078 | 24448 ft | 374 kts | 31° |
| 2026-04-25 03:39 | 3.41993 | 102.09370 | 24822 ft | 376 kts | 32° |
| 2026-04-25 03:39 | 3.44245 | 102.10695 | 24850 ft | 376 kts | 31° |
| 2026-04-25 03:39 | 3.46542 | 102.11938 | 24895 ft | 376 kts | 29° |
| 2026-04-25 03:40 | 3.48879 | 102.13134 | 24893 ft | 377 kts | 28° |
| 2026-04-25 03:40 | 3.51222 | 102.14312 | 24902 ft | 377 kts | 28° |
| 2026-04-25 03:40 | 3.53528 | 102.15471 | 24903 ft | 377 kts | 28° |
| 2026-04-25 03:40 | 3.55870 | 102.16653 | 24903 ft | 377 kts | 28° |
| 2026-04-25 03:41 | 3.58206 | 102.17838 | 24912 ft | 377 kts | 28° |
| 2026-04-25 03:41 | 3.60542 | 102.19028 | 24891 ft | 377 kts | 28° |
| 2026-04-25 03:41 | 3.62876 | 102.20220 | 24893 ft | 377 kts | 28° |
| 2026-04-25 03:41 | 3.65209 | 102.21413 | 24890 ft | 376 kts | 28° |
| 2026-04-25 03:42 | 3.67541 | 102.22607 | 24894 ft | 376 kts | 29° |
| 2026-04-25 03:42 | 3.69870 | 102.23800 | 24900 ft | 376 kts | 29° |
| 2026-04-25 03:42 | 3.72200 | 102.24994 | 24894 ft | 376 kts | 29° |
| 2026-04-25 03:42 | 3.74531 | 102.26189 | 24893 ft | 376 kts | 28° |
| 2026-04-25 03:43 | 3.76860 | 102.27383 | 24896 ft | 376 kts | 28° |
| 2026-04-25 03:43 | 3.79190 | 102.28577 | 24898 ft | 376 kts | 28° |
| 2026-04-25 03:43 | 3.81518 | 102.29771 | 24893 ft | 376 kts | 28° |
| 2026-04-25 03:43 | 3.83852 | 102.30967 | 24897 ft | 376 kts | 28° |
| 2026-04-25 03:44 | 3.86178 | 102.32159 | 24892 ft | 376 kts | 28° |
| 2026-04-25 03:44 | 3.88490 | 102.33344 | 24877 ft | 370 kts | 28° |
| 2026-04-25 03:44 | 3.90768 | 102.34511 | 24636 ft | 366 kts | 29° |
| 2026-04-25 03:44 | 3.93021 | 102.35666 | 24380 ft | 363 kts | 29° |
| 2026-04-25 03:45 | 3.95259 | 102.36814 | 24046 ft | 361 kts | 29° |
| 2026-04-25 03:45 | 3.97486 | 102.37956 | 23717 ft | 359 kts | 29° |
| 2026-04-25 03:45 | 3.99706 | 102.39095 | 23317 ft | 358 kts | 29° |
| 2026-04-25 03:45 | 4.01910 | 102.40225 | 22921 ft | 356 kts | 29° |
| 2026-04-25 03:46 | 4.04108 | 102.41352 | 22554 ft | 354 kts | 29° |
| 2026-04-25 03:46 | 4.06291 | 102.42472 | 22194 ft | 351 kts | 29° |
| 2026-04-25 03:46 | 4.08457 | 102.43583 | 21850 ft | 348 kts | 29° |
| 2026-04-25 03:46 | 4.10610 | 102.44688 | 21495 ft | 346 kts | 29° |
| 2026-04-25 03:47 | 4.12744 | 102.45782 | 21151 ft | 344 kts | 29° |
| 2026-04-25 03:47 | 4.14869 | 102.46872 | 20812 ft | 342 kts | 30° |
| 2026-04-25 03:47 | 4.16981 | 102.47956 | 20463 ft | 340 kts | 30° |
| 2026-04-25 03:47 | 4.19080 | 102.49033 | 20132 ft | 339 kts | 30° |
| 2026-04-25 03:48 | 4.21172 | 102.50107 | 19793 ft | 337 kts | 30° |
| 2026-04-25 03:48 | 4.23256 | 102.51177 | 19452 ft | 336 kts | 30° |
| 2026-04-25 03:48 | 4.25336 | 102.52245 | 19114 ft | 335 kts | 30° |
| 2026-04-25 03:48 | 4.27406 | 102.53307 | 18763 ft | 334 kts | 30° |
| 2026-04-25 03:49 | 4.29469 | 102.54366 | 18437 ft | 332 kts | 30° |
| 2026-04-25 03:49 | 4.31528 | 102.55423 | 18060 ft | 332 kts | 30° |
| 2026-04-25 03:49 | 4.33580 | 102.56476 | 17694 ft | 331 kts | 30° |
| 2026-04-25 03:49 | 4.35616 | 102.57521 | 17346 ft | 329 kts | 30° |
| 2026-04-25 03:50 | 4.37650 | 102.58566 | 17002 ft | 326 kts | 30° |
| 2026-04-25 03:50 | 4.39662 | 102.59599 | 16668 ft | 324 kts | 30° |
| 2026-04-25 03:50 | 4.41657 | 102.60623 | 16345 ft | 322 kts | 30° |
| 2026-04-25 03:50 | 4.43645 | 102.61644 | 16028 ft | 320 kts | 30° |
| 2026-04-25 03:51 | 4.45617 | 102.62657 | 15699 ft | 318 kts | 30° |
| 2026-04-25 03:51 | 4.47582 | 102.63666 | 15373 ft | 317 kts | 30° |
| 2026-04-25 03:51 | 4.49539 | 102.64672 | 15053 ft | 315 kts | 30° |
| 2026-04-25 03:51 | 4.51493 | 102.65676 | 14727 ft | 314 kts | 29° |
| 2026-04-25 03:52 | 4.53432 | 102.66672 | 14410 ft | 313 kts | 29° |
| 2026-04-25 03:52 | 4.55375 | 102.67671 | 14072 ft | 313 kts | 29° |
| 2026-04-25 03:52 | 4.57313 | 102.68667 | 13740 ft | 313 kts | 29° |
| 2026-04-25 03:52 | 4.59246 | 102.69657 | 13390 ft | 311 kts | 29° |
| 2026-04-25 03:53 | 4.61173 | 102.70635 | 13054 ft | 310 kts | 28° |
| 2026-04-25 03:53 | 4.63106 | 102.71592 | 12721 ft | 309 kts | 28° |
| 2026-04-25 03:53 | 4.65029 | 102.72533 | 12393 ft | 307 kts | 28° |
| 2026-04-25 03:53 | 4.66938 | 102.73469 | 12109 ft | 304 kts | 28° |
| 2026-04-25 03:54 | 4.68828 | 102.74397 | 11872 ft | 300 kts | 28° |
| 2026-04-25 03:54 | 4.70696 | 102.75315 | 11543 ft | 299 kts | 28° |
| 2026-04-25 03:54 | 4.72562 | 102.76233 | 11232 ft | 298 kts | 28° |
| 2026-04-25 03:54 | 4.74423 | 102.77150 | 10916 ft | 298 kts | 28° |
| 2026-04-25 03:55 | 4.76277 | 102.78062 | 10602 ft | 297 kts | 28° |
| 2026-04-25 03:55 | 4.78126 | 102.78974 | 10278 ft | 296 kts | 28° |
| 2026-04-25 03:55 | 4.79960 | 102.79877 | 10095 ft | 290 kts | 28° |
| 2026-04-25 03:55 | 4.81763 | 102.80765 | 9829 ft | 288 kts | 28° |
| 2026-04-25 03:56 | 4.83558 | 102.81649 | 9509 ft | 287 kts | 28° |
| 2026-04-25 03:56 | 4.85342 | 102.82528 | 9214 ft | 285 kts | 28° |
| 2026-04-25 03:56 | 4.87135 | 102.83378 | 8892 ft | 285 kts | 23° |
| 2026-04-25 03:56 | 4.89031 | 102.83949 | 8587 ft | 285 kts | 15° |
| 2026-04-25 03:57 | 4.90936 | 102.84396 | 8274 ft | 284 kts | 14° |
| 2026-04-25 03:57 | 4.92883 | 102.84847 | 7957 ft | 283 kts | 14° |
| 2026-04-25 03:57 | 4.94769 | 102.85272 | 7649 ft | 281 kts | 14° |
| 2026-04-25 03:57 | 4.96687 | 102.85747 | 7350 ft | 279 kts | 15° |
| 2026-04-25 03:58 | 4.98542 | 102.86217 | 7051 ft | 278 kts | 15° |
| 2026-04-25 03:58 | 5.00410 | 102.86694 | 6748 ft | 278 kts | 15° |
| 2026-04-25 03:58 | 5.02288 | 102.87174 | 6431 ft | 278 kts | 15° |
| 2026-04-25 03:58 | 5.04161 | 102.87651 | 6108 ft | 277 kts | 15° |
| 2026-04-25 03:59 | 5.06024 | 102.88128 | 5794 ft | 275 kts | 15° |
| 2026-04-25 03:59 | 5.07903 | 102.88607 | 5492 ft | 274 kts | 14° |
| 2026-04-25 03:59 | 5.09761 | 102.88994 | 5238 ft | 272 kts | 11° |
| 2026-04-25 03:59 | 5.11613 | 102.89337 | 5012 ft | 269 kts | 12° |
| 2026-04-25 04:00 | 5.13436 | 102.89679 | 4776 ft | 265 kts | 12° |
| 2026-04-25 04:00 | 5.15212 | 102.90017 | 4553 ft | 262 kts | 12° |
| 2026-04-25 04:00 | 5.17013 | 102.90363 | 4315 ft | 259 kts | 12° |
| 2026-04-25 04:00 | 5.18671 | 102.90993 | 4057 ft | 254 kts | 39° |
| 2026-04-25 04:01 | 5.19847 | 102.92245 | 3890 ft | 247 kts | 49° |
| 2026-04-25 04:01 | 5.21030 | 102.93450 | 3805 ft | 235 kts | 45° |
| 2026-04-25 04:01 | 5.22174 | 102.94551 | 3706 ft | 218 kts | 44° |
| 2026-04-25 04:01 | 5.23245 | 102.95516 | 3607 ft | 197 kts | 45° |
| 2026-04-25 04:02 | 5.24207 | 102.96429 | 3384 ft | 184 kts | 46° |
| 2026-04-25 04:02 | 5.25100 | 102.97303 | 3168 ft | 175 kts | 47° |
| 2026-04-25 04:02 | 5.25944 | 102.98136 | 2947 ft | 165 kts | 47° |
| 2026-04-25 04:02 | 5.26743 | 102.98926 | 2757 ft | 158 kts | 47° |
| 2026-04-25 04:03 | 5.27527 | 102.99702 | 2574 ft | 159 kts | 47° |
| 2026-04-25 04:03 | 5.28293 | 103.00462 | 2368 ft | 161 kts | 47° |
| 2026-04-25 04:03 | 5.29088 | 103.01248 | 2186 ft | 158 kts | 47° |
| 2026-04-25 04:03 | 5.29881 | 103.02033 | 1961 ft | 159 kts | 46° |
| 2026-04-25 04:04 | 5.30677 | 103.02819 | 1749 ft | 162 kts | 47° |
| 2026-04-25 04:04 | 5.31485 | 103.03618 | 1537 ft | 163 kts | 47° |
| 2026-04-25 04:04 | 5.32287 | 103.04412 | 1321 ft | 162 kts | 46° |
| 2026-04-25 04:04 | 5.33084 | 103.05200 | 1116 ft | 160 kts | 46° |
| 2026-04-25 04:05 | 5.33875 | 103.05983 | 925 ft | 160 kts | 45° |
| 2026-04-25 04:05 | 5.34668 | 103.06766 | 720 ft | 160 kts | 45° |
| 2026-04-25 04:05 | 5.35464 | 103.07555 | 504 ft | 162 kts | 46° |
| 2026-04-25 04:05 | 5.36259 | 103.08353 | 266 ft | 161 kts | 44° |
| 2026-04-25 04:06 | 5.37029 | 103.09116 | 57 ft | 150 kts | 44° |
| 2026-04-25 04:06 | 5.37713 | 103.09799 | 28 ft | 118 kts | 43° |
| 2026-04-25 04:06 | 5.38155 | 103.10224 | 28 ft | 61 kts | 45° |
| 2026-04-25 04:06 | 5.38358 | 103.10422 | 28 ft | 28 kts | 44° |
| 2026-04-25 04:07 | 5.38506 | 103.10567 | 28 ft | 30 kts | 44° |
| 2026-04-25 04:07 | 5.38658 | 103.10716 | 28 ft | 31 kts | 44° |
| 2026-04-25 04:07 | 5.38811 | 103.10867 | 28 ft | 31 kts | 44° |
| 2026-04-25 04:07 | 5.38967 | 103.11020 | 28 ft | 32 kts | 44° |
| 2026-04-25 04:08 | 5.39118 | 103.11149 | 28 ft | 28 kts | 26° |
| 2026-04-25 04:08 | 5.39214 | 103.11240 | 28 ft | 12 kts | 136° |
| 2026-04-25 04:08 | 5.39137 | 103.11207 | 28 ft | 13 kts | 215° |
| 2026-04-25 04:08 | 5.39068 | 103.11139 | 28 ft | 15 kts | 233° |
| 2026-04-25 04:09 | 5.38981 | 103.11048 | 28 ft | 22 kts | 225° |
| 2026-04-25 04:09 | 5.38854 | 103.10921 | 28 ft | 29 kts | 225° |
| 2026-04-25 04:09 | 5.38697 | 103.10761 | 28 ft | 33 kts | 226° |
| 2026-04-25 04:09 | 5.38538 | 103.10597 | 28 ft | 32 kts | 224° |
| 2026-04-25 04:10 | 5.38392 | 103.10456 | 28 ft | 24 kts | 224° |
| 2026-04-25 04:10 | 5.38274 | 103.10343 | 28 ft | 23 kts | 217° |
| 2026-04-25 04:10 | 5.38173 | 103.10353 | 27 ft | 14 kts | 137° |
| 2026-04-25 04:10 | 5.38097 | 103.10404 | 27 ft | 11 kts | 175° |
| 2026-04-25 04:11 | 5.37973 | 103.10423 | 24 ft | 6 kts | 136° |
| 2026-04-25 04:11 | 5.37952 | 103.10444 | 26 ft | 1 kts | 135° |